sensor_id;sensor_type;location;lat;lon;timestamp;pressure;altitude;pressure_sealevel;temperature;humidity
76081;BME280;64784;47.600;19.682;2022-10-31T00:04:46;100960.22;;;12.68;100.00
76081;BME280;64784;47.600;19.682;2022-10-31T00:09:47;100964.50;;;12.50;100.00
76081;BME280;64784;47.600;19.682;2022-10-31T00:14:49;100961.72;;;12.45;100.00
76081;BME280;64784;47.600;19.682;2022-10-31T00:19:54;100953.13;;;12.31;100.00
76081;BME280;64784;47.600;19.682;2022-10-31T00:24:55;100953.56;;;12.28;100.00
76081;BME280;64784;47.600;19.682;2022-10-31T00:29:57;100950.34;;;12.26;100.00
76081;BME280;64784;47.600;19.682;2022-10-31T00:34:58;100949.97;;;12.22;100.00
76081;BME280;64784;47.600;19.682;2022-10-31T00:40:00;100952.09;;;12.14;100.00
76081;BME280;64784;47.600;19.682;2022-10-31T00:45:01;100947.31;;;12.04;100.00
76081;BME280;64784;47.600;19.682;2022-10-31T00:50:05;100937.19;;;12.01;100.00
76081;BME280;64784;47.600;19.682;2022-10-31T00:55:06;100943.06;;;12.03;100.00
76081;BME280;64784;47.600;19.682;2022-10-31T01:00:08;100932.28;;;11.97;100.00
76081;BME280;64784;47.600;19.682;2022-10-31T01:05:11;100935.34;;;12.01;100.00
76081;BME280;64784;47.600;19.682;2022-10-31T01:10:11;100935.72;;;12.05;100.00
76081;BME280;64784;47.600;19.682;2022-10-31T01:15:17;100930.91;;;11.95;100.00
76081;BME280;64784;47.600;19.682;2022-10-31T01:20:19;100926.19;;;11.97;100.00
76081;BME280;64784;47.600;19.682;2022-10-31T01:25:20;100923.03;;;11.88;100.00
76081;BME280;64784;47.600;19.682;2022-10-31T01:30:21;100915.75;;;11.84;100.00
76081;BME280;64784;47.600;19.682;2022-10-31T01:35:22;100916.69;;;11.89;100.00
76081;BME280;64784;47.600;19.682;2022-10-31T01:40:23;100916.94;;;11.88;100.00
76081;BME280;64784;47.600;19.682;2022-10-31T01:45:26;100906.09;;;11.71;100.00
76081;BME280;64784;47.600;19.682;2022-10-31T01:56:18;100904.25;;;11.52;100.00
76081;BME280;64784;47.600;19.682;2022-10-31T02:01:26;100914.75;;;11.59;100.00
76081;BME280;64784;47.600;19.682;2022-10-31T02:46:50;100934.59;;;11.43;100.00
76081;BME280;64784;47.600;19.682;2022-10-31T02:51:56;100927.03;;;11.54;100.00
76081;BME280;64784;47.600;19.682;2022-10-31T02:57:04;100924.97;;;11.56;100.00
76081;BME280;64784;47.600;19.682;2022-10-31T03:02:29;100939.75;;;11.63;100.00
76081;BME280;64784;47.600;19.682;2022-10-31T03:13:10;100940.72;;;11.69;100.00
76081;BME280;64784;47.600;19.682;2022-10-31T03:18:32;100947.63;;;11.70;100.00
76081;BME280;64784;47.600;19.682;2022-10-31T03:23:41;100959.03;;;11.64;100.00
76081;BME280;64784;47.600;19.682;2022-10-31T03:28:55;100955.44;;;11.58;100.00
76081;BME280;64784;47.600;19.682;2022-10-31T03:34:00;100955.75;;;11.69;100.00
76081;BME280;64784;47.600;19.682;2022-10-31T03:39:04;100956.34;;;11.71;100.00
76081;BME280;64784;47.600;19.682;2022-10-31T03:44:14;100958.56;;;11.48;100.00
76081;BME280;64784;47.600;19.682;2022-10-31T03:49:21;100949.44;;;11.44;100.00
76081;BME280;64784;47.600;19.682;2022-10-31T03:54:36;100952.97;;;11.38;100.00
76081;BME280;64784;47.600;19.682;2022-10-31T03:59:51;100952.78;;;11.33;100.00
76081;BME280;64784;47.600;19.682;2022-10-31T04:04:58;100962.16;;;11.29;100.00
76081;BME280;64784;47.600;19.682;2022-10-31T04:34:07;100961.56;;;11.27;100.00
76081;BME280;64784;47.600;19.682;2022-10-31T04:39:34;100959.09;;;11.32;100.00
76081;BME280;64784;47.600;19.682;2022-10-31T04:44:44;100963.72;;;11.36;100.00
76081;BME280;64784;47.600;19.682;2022-10-31T04:49:52;100966.38;;;11.36;100.00
76081;BME280;64784;47.600;19.682;2022-10-31T04:54:54;100972.31;;;11.32;100.00
76081;BME280;64784;47.600;19.682;2022-10-31T04:59:55;100963.47;;;11.19;100.00
76081;BME280;64784;47.600;19.682;2022-10-31T05:04:57;100956.13;;;11.21;100.00
76081;BME280;64784;47.600;19.682;2022-10-31T05:28:20;100986.44;;;11.12;100.00
76081;BME280;64784;47.600;19.682;2022-10-31T05:33:40;100974.88;;;11.13;100.00
76081;BME280;64784;47.600;19.682;2022-10-31T06:08:43;101001.56;;;10.98;100.00
76081;BME280;64784;47.600;19.682;2022-10-31T06:13:47;100999.34;;;10.95;100.00
76081;BME280;64784;47.600;19.682;2022-10-31T06:31:17;101017.03;;;10.95;100.00
76081;BME280;64784;47.600;19.682;2022-10-31T07:19:10;101036.41;;;11.14;100.00
76081;BME280;64784;47.600;19.682;2022-10-31T07:24:59;101043.22;;;11.35;100.00
76081;BME280;64784;47.600;19.682;2022-10-31T07:30:31;101045.56;;;11.50;100.00
76081;BME280;64784;47.600;19.682;2022-10-31T07:35:45;101042.94;;;11.43;100.00
76081;BME280;64784;47.600;19.682;2022-10-31T07:41:43;101049.19;;;11.56;100.00
76081;BME280;64784;47.600;19.682;2022-10-31T08:19:34;101060.44;;;11.76;100.00
76081;BME280;64784;47.600;19.682;2022-10-31T08:24:41;101071.50;;;11.66;100.00
76081;BME280;64784;47.600;19.682;2022-10-31T08:29:45;101075.63;;;11.56;100.00
76081;BME280;64784;47.600;19.682;2022-10-31T08:34:46;101071.41;;;11.48;100.00
